createdAt,value
2023-02-06T00:00:17.121Z,3.13
2023-02-06T00:02:43.713Z,3.12
2023-02-06T00:05:10.205Z,3.11
2023-02-06T00:07:36.818Z,3.10
2023-02-06T00:10:04.652Z,3.10
2023-02-06T00:12:31.189Z,3.10
2023-02-06T00:14:57.717Z,3.10
2023-02-06T00:17:24.203Z,3.07
2023-02-06T00:19:50.787Z,3.04
2023-02-06T00:22:17.460Z,3.04
2023-02-06T00:24:43.952Z,3.04
2023-02-06T00:27:10.395Z,3.02
2023-02-06T00:29:37.284Z,3.00
2023-02-06T00:32:04.078Z,3.00
2023-02-06T00:34:30.622Z,2.98
2023-02-06T00:36:57.244Z,2.96
2023-02-06T00:39:23.752Z,2.98
2023-02-06T00:41:50.307Z,2.97
2023-02-06T00:44:16.831Z,2.99
2023-02-06T00:46:43.368Z,2.99
2023-02-06T00:49:09.838Z,2.99
2023-02-06T00:51:38.856Z,3.00
2023-02-06T00:54:08.936Z,3.00
2023-02-06T00:56:35.728Z,3.00
2023-02-06T00:59:02.318Z,3.01
2023-02-06T01:01:28.931Z,3.01
2023-02-06T01:03:55.546Z,3.01
2023-02-06T01:06:22.173Z,3.03
2023-02-06T01:08:48.751Z,3.00
2023-02-06T01:11:20.047Z,3.02
2023-02-06T01:13:46.770Z,3.02
2023-02-06T01:16:16.758Z,3.02
2023-02-06T01:18:43.947Z,3.02
2023-02-06T01:21:11.977Z,3.02
2023-02-06T01:23:39.566Z,3.02
2023-02-06T01:26:12.417Z,3.05
2023-02-06T01:28:41.994Z,3.04
2023-02-06T01:31:12.258Z,3.01
2023-02-06T01:33:39.717Z,3.01
2023-02-06T01:36:06.902Z,3.00
2023-02-06T01:38:33.812Z,3.01
2023-02-06T01:41:01.519Z,3.02
2023-02-06T01:43:32.151Z,3.02
2023-02-06T01:45:58.813Z,3.02
2023-02-06T01:48:34.175Z,3.05
2023-02-06T01:51:03.315Z,3.06
2023-02-06T01:53:31.171Z,3.08
2023-02-06T01:56:01.779Z,3.10
2023-02-06T01:58:32.031Z,3.10
2023-02-06T02:01:00.249Z,3.12
2023-02-06T02:03:28.867Z,3.12
2023-02-06T02:06:01.444Z,3.14
2023-02-06T02:08:36.074Z,3.15
2023-02-06T02:11:05.227Z,3.16
2023-02-06T02:13:36.459Z,3.17
2023-02-06T02:16:06.803Z,3.17
2023-02-06T02:18:51.762Z,3.17
2023-02-06T02:21:36.162Z,3.17
2023-02-06T02:24:59.511Z,3.16
2023-02-06T02:27:34.814Z,3.16
2023-02-06T02:30:01.198Z,3.14
2023-02-06T02:32:57.925Z,3.13
2023-02-06T02:35:51.558Z,3.11
2023-02-06T02:38:45.668Z,3.09
2023-02-06T02:41:38.049Z,3.07
2023-02-06T02:44:27.426Z,3.05
2023-02-06T02:46:56.932Z,3.05
2023-02-06T02:49:31.764Z,3.03
2023-02-06T02:51:59.423Z,3.00
2023-02-06T02:54:26.476Z,2.99
2023-02-06T02:56:56.943Z,2.97
2023-02-06T02:59:28.934Z,2.94
2023-02-06T03:02:03.856Z,2.89
2023-02-06T03:04:38.018Z,2.84
2023-02-06T03:07:31.947Z,2.80
2023-02-06T03:10:14.873Z,2.77
2023-02-06T03:12:49.083Z,2.75
2023-02-06T03:16:03.131Z,2.66
2023-02-06T03:18:44.643Z,2.59
2023-02-06T03:21:15.321Z,2.55
2023-02-06T03:23:44.659Z,2.51
2023-02-06T03:26:15.791Z,2.46
2023-02-06T03:28:47.555Z,2.42
2023-02-06T03:31:20.019Z,2.35
2023-02-06T03:33:55.095Z,2.29
2023-02-06T03:36:23.054Z,2.27
2023-02-06T03:38:51.411Z,2.21
2023-02-06T03:41:22.506Z,2.17
2023-02-06T03:43:51.006Z,2.13
2023-02-06T03:46:18.792Z,2.09
2023-02-06T03:48:52.484Z,2.08
2023-02-06T03:51:26.643Z,2.06
2023-02-06T03:53:57.809Z,1.99
2023-02-06T03:56:32.331Z,1.99
2023-02-06T03:58:58.966Z,1.94
2023-02-06T04:01:26.065Z,1.91
2023-02-06T04:03:52.871Z,1.87
2023-02-06T04:06:19.722Z,1.82
2023-02-06T04:08:46.434Z,1.81
2023-02-06T04:11:12.864Z,1.79
2023-02-06T04:13:39.341Z,1.77
2023-02-06T04:16:05.820Z,1.77
2023-02-06T04:18:32.412Z,1.79
2023-02-06T04:21:06.826Z,1.78
2023-02-06T04:23:33.975Z,1.77
2023-02-06T04:26:01.029Z,1.77
2023-02-06T04:28:27.580Z,1.76
2023-02-06T04:30:54.343Z,1.74
2023-02-06T04:33:21.279Z,1.72
2023-02-06T04:35:49.025Z,1.72
2023-02-06T04:38:15.827Z,1.72
2023-02-06T04:40:42.970Z,1.69
2023-02-06T04:43:09.518Z,1.68
2023-02-06T04:45:36.267Z,1.65
2023-02-06T04:48:02.994Z,1.64
2023-02-06T04:50:31.370Z,1.64
2023-02-06T04:52:58.337Z,1.65
2023-02-06T04:55:24.912Z,1.65
2023-02-06T04:57:51.750Z,1.64
2023-02-06T05:00:18.540Z,1.66
2023-02-06T05:02:45.521Z,1.65
2023-02-06T05:05:12.118Z,1.64
2023-02-06T05:07:38.658Z,1.64
2023-02-06T05:10:05.931Z,1.64
2023-02-06T05:12:32.396Z,1.65
2023-02-06T05:14:58.785Z,1.60
2023-02-06T05:17:25.279Z,1.59
2023-02-06T05:19:51.686Z,1.59
2023-02-06T05:22:18.317Z,1.58
2023-02-06T05:24:44.775Z,1.57
2023-02-06T05:27:11.278Z,1.55
2023-02-06T05:29:37.813Z,1.52
2023-02-06T05:32:04.375Z,1.48
2023-02-06T05:34:30.876Z,1.46
2023-02-06T05:36:57.392Z,1.41
2023-02-06T05:39:24.690Z,1.38
2023-02-06T05:41:51.262Z,1.39
2023-02-06T05:44:17.745Z,1.40
2023-02-06T05:46:44.269Z,1.42
2023-02-06T05:49:11.099Z,1.42
2023-02-06T05:51:37.623Z,1.42
2023-02-06T05:54:04.285Z,1.42
2023-02-06T05:56:30.913Z,1.42
2023-02-06T05:58:57.515Z,1.41
2023-02-06T06:01:24.176Z,1.42
2023-02-06T06:03:50.682Z,1.43
2023-02-06T06:06:17.321Z,1.42
2023-02-06T06:08:43.949Z,1.40
2023-02-06T06:11:10.466Z,1.42
2023-02-06T06:13:36.954Z,1.41
2023-02-06T06:16:03.547Z,1.41
2023-02-06T06:18:30.240Z,1.44
2023-02-06T06:20:56.919Z,1.43
2023-02-06T06:23:23.519Z,1.46
2023-02-06T06:25:50.516Z,1.48
2023-02-06T06:28:17.225Z,1.48
2023-02-06T06:30:43.839Z,1.47
2023-02-06T06:33:10.686Z,1.49
2023-02-06T06:35:37.589Z,1.51
2023-02-06T06:38:04.239Z,1.50
2023-02-06T06:40:30.854Z,1.50
2023-02-06T06:42:57.401Z,1.49
2023-02-06T06:45:23.955Z,1.48
2023-02-06T06:47:50.463Z,1.47
2023-02-06T06:50:17.158Z,1.44
2023-02-06T06:52:43.788Z,1.44
2023-02-06T06:55:11.009Z,1.44
2023-02-06T06:57:37.651Z,1.43
2023-02-06T07:00:05.574Z,1.45
2023-02-06T07:02:32.582Z,1.47
2023-02-06T07:05:00.490Z,1.46
2023-02-06T07:07:27.219Z,1.45
2023-02-06T07:09:53.907Z,1.46
2023-02-06T07:12:20.559Z,1.47
2023-02-06T07:14:47.144Z,1.48
2023-02-06T07:17:13.712Z,1.48
2023-02-06T07:19:40.371Z,1.49
2023-02-06T07:22:07.111Z,1.51
2023-02-06T07:24:33.755Z,1.53
2023-02-06T07:27:00.326Z,1.53
2023-02-06T07:29:27.180Z,1.54
2023-02-06T07:31:53.843Z,1.56
2023-02-06T07:34:20.467Z,1.58
2023-02-06T07:36:47.389Z,1.64
2023-02-06T07:39:14.054Z,1.69
2023-02-06T07:41:40.707Z,1.73
2023-02-06T07:44:07.557Z,1.74
2023-02-06T07:46:34.812Z,1.79
2023-02-06T07:49:01.418Z,1.83
2023-02-06T07:51:28.615Z,1.86
2023-02-06T07:53:55.386Z,1.91
2023-02-06T07:56:23.732Z,1.95
2023-02-06T07:58:52.010Z,1.98
2023-02-06T08:01:19.583Z,2.02
2023-02-06T08:03:48.811Z,2.04
2023-02-06T08:06:16.678Z,2.07
2023-02-06T08:08:44.032Z,2.09
2023-02-06T08:11:18.739Z,2.11
2023-02-06T08:13:46.518Z,2.17
2023-02-06T08:16:15.946Z,2.25
2023-02-06T08:18:42.861Z,2.31
2023-02-06T08:21:15.035Z,2.37
2023-02-06T08:23:42.490Z,2.44
2023-02-06T08:26:15.783Z,2.50
2023-02-06T08:28:44.212Z,2.55
2023-02-06T08:31:15.680Z,2.64
2023-02-06T08:33:42.360Z,2.71
2023-02-06T08:36:09.825Z,2.78
2023-02-06T08:38:37.030Z,2.87
2023-02-06T08:41:04.750Z,2.96
2023-02-06T08:43:33.194Z,3.06
2023-02-06T08:45:59.951Z,3.15
2023-02-06T08:48:26.918Z,3.24
2023-02-06T08:51:05.482Z,3.35
2023-02-06T08:53:32.446Z,3.42
2023-02-06T08:56:07.470Z,3.51
2023-02-06T08:58:34.687Z,3.59
2023-02-06T09:01:08.914Z,3.69
2023-02-06T09:03:36.382Z,3.78
2023-02-06T09:06:09.802Z,3.86
2023-02-06T09:08:38.212Z,3.98
2023-02-06T09:11:08.727Z,4.10
2023-02-06T09:13:35.621Z,4.22
2023-02-06T09:16:02.372Z,4.34
2023-02-06T09:18:29.171Z,4.49
2023-02-06T09:21:11.365Z,4.61
2023-02-06T09:23:43.744Z,4.72
2023-02-06T09:26:15.586Z,4.78
2023-02-06T09:28:42.159Z,4.81
2023-02-06T09:31:09.531Z,4.82
2023-02-06T09:33:38.077Z,4.88
2023-02-06T09:36:11.817Z,4.95
2023-02-06T09:38:40.483Z,5.04
2023-02-06T09:41:19.379Z,5.12
2023-02-06T09:43:54.814Z,5.17
2023-02-06T09:46:28.135Z,5.22
2023-02-06T09:48:57.428Z,5.27
2023-02-06T09:51:30.668Z,5.39
2023-02-06T09:54:35.794Z,5.50
2023-02-06T09:57:11.186Z,5.59
2023-02-06T09:59:44.984Z,5.61
2023-02-06T10:02:55.480Z,5.69
2023-02-06T10:05:49.142Z,5.71
2023-02-06T10:08:39.036Z,5.69
2023-02-06T10:11:18.676Z,5.69
2023-02-06T10:13:55.338Z,5.67
2023-02-06T10:16:55.950Z,5.65
2023-02-06T10:19:33.234Z,5.64
2023-02-06T10:22:05.472Z,5.57
2023-02-06T10:24:31.861Z,5.51
2023-02-06T10:27:01.332Z,5.50
2023-02-06T10:29:31.446Z,5.54
2023-02-06T10:32:09.870Z,5.64
2023-02-06T10:34:57.915Z,5.76
2023-02-06T10:37:32.596Z,5.84
2023-02-06T10:40:23.990Z,5.92
2023-02-06T10:42:58.059Z,6.00
2023-02-06T10:45:47.522Z,6.04
2023-02-06T10:48:32.835Z,6.14
2023-02-06T10:51:21.262Z,6.25
2023-02-06T10:53:54.637Z,6.35
2023-02-06T10:56:26.592Z,6.27
2023-02-06T10:58:58.608Z,6.38
2023-02-06T11:01:29.775Z,6.41
2023-02-06T11:04:03.693Z,6.47
2023-02-06T11:06:30.783Z,6.59
2023-02-06T11:08:58.199Z,6.74
2023-02-06T11:11:26.196Z,6.81
2023-02-06T11:14:00.999Z,6.76
2023-02-06T11:16:29.293Z,6.92
2023-02-06T11:18:59.626Z,7.20
2023-02-06T11:21:41.317Z,7.35
2023-02-06T11:24:16.590Z,7.18
2023-02-06T11:27:11.590Z,7.05
2023-02-06T11:29:45.755Z,6.99
2023-02-06T11:32:40.699Z,7.17
2023-02-06T11:35:33.594Z,7.29
2023-02-06T11:38:14.188Z,7.22
2023-02-06T11:40:41.014Z,7.12
2023-02-06T11:43:13.364Z,7.13
2023-02-06T11:45:41.237Z,7.34
2023-02-06T11:48:40.816Z,7.64
2023-02-06T11:51:09.146Z,7.48
2023-02-06T11:53:36.757Z,7.31
2023-02-06T11:56:07.148Z,7.29
2023-02-06T11:58:33.918Z,7.36
2023-02-06T12:01:07.017Z,7.46
2023-02-06T12:03:35.704Z,7.62
2023-02-06T12:06:16.148Z,7.48
2023-02-06T12:08:52.913Z,7.34
2023-02-06T12:11:28.244Z,7.60
2023-02-06T12:14:00.191Z,7.51
2023-02-06T12:16:28.064Z,7.46
2023-02-06T12:18:57.697Z,7.71
2023-02-06T12:21:55.280Z,7.98
2023-02-06T12:24:30.535Z,8.18
2023-02-06T12:27:01.045Z,8.18
2023-02-06T12:29:36.262Z,8.39
2023-02-06T12:32:09.908Z,8.54
2023-02-06T12:35:00.821Z,8.24
2023-02-06T12:37:40.666Z,7.86
2023-02-06T12:40:25.795Z,7.56
2023-02-06T12:43:03.834Z,7.49
2023-02-06T12:45:40.066Z,7.50
2023-02-06T12:48:19.961Z,7.62
2023-02-06T12:50:50.182Z,8.08
2023-02-06T12:53:24.376Z,8.44
2023-02-06T12:56:00.519Z,8.70
2023-02-06T12:58:33.711Z,8.82
2023-02-06T13:01:28.868Z,8.55
2023-02-06T13:04:02.403Z,8.16
2023-02-06T13:06:33.825Z,7.93
2023-02-06T13:09:08.677Z,7.90
2023-02-06T13:11:40.954Z,7.92
2023-02-06T13:14:21.684Z,8.25
2023-02-06T13:17:08.058Z,8.50
2023-02-06T13:19:37.563Z,8.74
2023-02-06T13:22:10.327Z,8.83
2023-02-06T13:24:48.667Z,9.07
2023-02-06T13:27:24.065Z,9.12
2023-02-06T13:29:53.836Z,8.87
2023-02-06T13:32:22.679Z,8.61
2023-02-06T13:34:49.186Z,8.45
2023-02-06T13:37:35.441Z,8.27
2023-02-06T13:40:30.684Z,8.10
2023-02-06T13:43:26.232Z,7.91
2023-02-06T13:46:00.210Z,7.77
2023-02-06T13:49:04.112Z,7.68
2023-02-06T13:51:46.231Z,7.62
2023-02-06T13:54:31.508Z,7.55
2023-02-06T13:57:28.218Z,7.78
2023-02-06T14:00:14.985Z,8.02
2023-02-06T14:02:48.689Z,8.24
2023-02-06T14:05:20.734Z,8.33
2023-02-06T14:07:53.521Z,8.35
2023-02-06T14:11:05.331Z,8.37
2023-02-06T14:13:44.381Z,8.27
2023-02-06T14:16:20.155Z,8.23
2023-02-06T14:18:55.853Z,8.11
2023-02-06T14:21:43.705Z,8.00
2023-02-06T14:24:46.745Z,7.94
2023-02-06T14:27:22.221Z,7.89
2023-02-06T14:30:12.743Z,7.81
2023-02-06T14:33:17.508Z,7.83
2023-02-06T14:36:08.632Z,7.78
2023-02-06T14:39:00.912Z,7.75
2023-02-06T14:41:32.308Z,7.71
2023-02-06T14:44:00.058Z,7.66
2023-02-06T14:46:27.574Z,7.59
2023-02-06T14:48:58.488Z,7.56
2023-02-06T14:51:39.423Z,7.58
2023-02-06T14:54:26.823Z,7.59
2023-02-06T14:56:58.774Z,7.59
2023-02-06T14:59:25.681Z,7.58
2023-02-06T15:01:54.175Z,7.57
2023-02-06T15:04:26.550Z,7.56
2023-02-06T15:07:04.343Z,7.46
2023-02-06T15:09:38.849Z,7.35
2023-02-06T15:12:21.285Z,7.27
2023-02-06T15:15:02.984Z,7.12
2023-02-06T15:17:31.235Z,7.06
2023-02-06T15:20:23.105Z,7.01
2023-02-06T15:22:50.760Z,6.91
2023-02-06T15:25:31.439Z,6.87
2023-02-06T15:28:03.755Z,6.86
2023-02-06T15:30:33.684Z,6.89
2023-02-06T15:33:01.159Z,6.92
2023-02-06T15:35:36.243Z,6.94
2023-02-06T15:38:07.604Z,6.92
2023-02-06T15:40:38.987Z,6.97
2023-02-06T15:43:06.188Z,6.97
2023-02-06T15:45:37.354Z,6.98
2023-02-06T15:48:33.866Z,6.96
2023-02-06T15:51:28.175Z,6.95
2023-02-06T15:54:19.048Z,6.91
2023-02-06T15:56:50.875Z,6.85
2023-02-06T15:59:21.834Z,6.80
2023-02-06T16:01:49.312Z,6.69
2023-02-06T16:04:22.057Z,6.62
2023-02-06T16:07:19.619Z,6.52
2023-02-06T16:10:06.065Z,6.46
2023-02-06T16:12:42.722Z,6.37
2023-02-06T16:15:32.471Z,6.29
2023-02-06T16:18:01.780Z,6.23
2023-02-06T16:20:42.227Z,6.18
2023-02-06T16:23:23.956Z,6.12
2023-02-06T16:26:07.368Z,6.05
2023-02-06T16:28:42.039Z,6.00
2023-02-06T16:31:14.488Z,5.95
2023-02-06T16:33:44.019Z,5.89
2023-02-06T16:36:16.514Z,5.83
2023-02-06T16:38:48.438Z,5.78
2023-02-06T16:41:33.622Z,5.75
2023-02-06T16:44:01.948Z,5.70
2023-02-06T16:46:29.814Z,5.69
2023-02-06T16:48:58.630Z,5.70
2023-02-06T16:51:27.978Z,5.71
2023-02-06T16:53:54.976Z,5.71
2023-02-06T16:56:21.930Z,5.70
2023-02-06T16:58:49.172Z,5.69
2023-02-06T17:01:25.655Z,5.69
2023-02-06T17:03:53.313Z,5.69
2023-02-06T17:06:28.742Z,5.64
2023-02-06T17:09:03.405Z,5.59
2023-02-06T17:11:31.615Z,5.55
2023-02-06T17:13:58.500Z,5.52
2023-02-06T17:16:27.108Z,5.47
2023-02-06T17:18:54.565Z,5.43
2023-02-06T17:21:23.207Z,5.37
2023-02-06T17:23:51.014Z,5.30
2023-02-06T17:26:23.097Z,5.22
2023-02-06T17:28:50.339Z,5.15
2023-02-06T17:31:19.020Z,5.06
2023-02-06T17:33:45.616Z,4.97
2023-02-06T17:36:29.292Z,4.87
2023-02-06T17:39:00.201Z,4.77
2023-02-06T17:41:27.659Z,4.68
2023-02-06T17:43:54.484Z,4.57
2023-02-06T17:46:21.195Z,4.46
2023-02-06T17:48:47.776Z,4.37
2023-02-06T17:51:14.412Z,4.29
2023-02-06T17:53:40.962Z,4.23
2023-02-06T17:56:12.029Z,4.12
2023-02-06T17:58:42.771Z,4.04
2023-02-06T18:01:22.258Z,3.99
2023-02-06T18:03:50.361Z,3.91
2023-02-06T18:06:18.350Z,3.86
2023-02-06T18:08:45.567Z,3.79
2023-02-06T18:11:18.453Z,3.73
2023-02-06T18:13:47.759Z,3.67
2023-02-06T18:16:19.574Z,3.59
2023-02-06T18:18:46.752Z,3.54
2023-02-06T18:21:13.586Z,3.48
2023-02-06T18:23:40.182Z,3.43
2023-02-06T18:26:09.147Z,3.39
2023-02-06T18:28:37.180Z,3.34
2023-02-06T18:31:04.411Z,3.28
2023-02-06T18:33:33.831Z,3.24
2023-02-06T18:36:04.803Z,3.15
2023-02-06T18:38:31.464Z,3.10
2023-02-06T18:41:03.552Z,3.05
2023-02-06T18:43:30.163Z,2.99
2023-02-06T18:45:57.216Z,2.93
2023-02-06T18:48:23.774Z,2.86
2023-02-06T18:50:50.374Z,2.82
2023-02-06T18:53:16.974Z,2.74
2023-02-06T18:55:44.039Z,2.70
2023-02-06T18:58:10.899Z,2.65
2023-02-06T19:00:40.288Z,2.61
2023-02-06T19:03:06.958Z,2.56
2023-02-06T19:05:36.508Z,2.47
2023-02-06T19:08:03.015Z,2.43
2023-02-06T19:10:29.637Z,2.39
2023-02-06T19:12:56.249Z,2.34
2023-02-06T19:15:22.748Z,2.29
2023-02-06T19:17:50.215Z,2.27
2023-02-06T19:20:16.827Z,2.19
2023-02-06T19:22:43.354Z,2.17
2023-02-06T19:25:13.993Z,2.14
2023-02-06T19:27:41.076Z,2.10
2023-02-06T19:30:08.499Z,2.04
2023-02-06T19:32:35.542Z,2.04
2023-02-06T19:35:03.356Z,1.99
2023-02-06T19:37:29.848Z,1.91
2023-02-06T19:39:56.473Z,1.87
2023-02-06T19:42:23.549Z,1.83
2023-02-06T19:44:54.840Z,1.77
2023-02-06T19:47:22.193Z,1.73
2023-02-06T19:49:55.954Z,1.65
2023-02-06T19:52:22.758Z,1.63
2023-02-06T19:54:49.379Z,1.59
2023-02-06T19:57:16.119Z,1.52
2023-02-06T19:59:42.717Z,1.47
2023-02-06T20:02:12.983Z,1.45
2023-02-06T20:04:39.849Z,1.39
2023-02-06T20:07:06.624Z,1.33
2023-02-06T20:09:33.274Z,1.28
2023-02-06T20:12:00.264Z,1.25
2023-02-06T20:14:27.065Z,1.18
2023-02-06T20:16:54.892Z,1.13
2023-02-06T20:19:24.784Z,1.07
2023-02-06T20:21:54.267Z,1.01
2023-02-06T20:24:23.563Z,0.97
2023-02-06T20:26:55.525Z,0.91
2023-02-06T20:29:25.722Z,0.86
2023-02-06T20:31:52.908Z,0.82
2023-02-06T20:34:21.778Z,0.78
2023-02-06T20:36:50.043Z,0.75
2023-02-06T20:39:17.502Z,0.71
2023-02-06T20:41:46.139Z,0.67
2023-02-06T20:44:14.062Z,0.63
2023-02-06T20:46:42.234Z,0.60
2023-02-06T20:49:15.253Z,0.56
2023-02-06T20:51:41.757Z,0.53
2023-02-06T20:54:11.469Z,0.51
2023-02-06T20:56:42.254Z,0.47
2023-02-06T20:59:13.770Z,0.44
2023-02-06T21:01:41.475Z,0.38
2023-02-06T21:04:11.286Z,0.35
2023-02-06T21:06:38.835Z,0.32
2023-02-06T21:09:07.273Z,0.26
2023-02-06T21:11:41.617Z,0.24
2023-02-06T21:14:08.668Z,0.19
2023-02-06T21:16:37.673Z,0.17
2023-02-06T21:19:07.900Z,0.15
2023-02-06T21:21:34.981Z,0.11
2023-02-06T21:24:01.586Z,0.10
2023-02-06T21:26:29.068Z,0.06
2023-02-06T21:28:55.825Z,0.04
2023-02-06T21:31:25.154Z,0.02
2023-02-06T21:33:52.527Z,-0.02
2023-02-06T21:36:21.002Z,-0.05
2023-02-06T21:38:47.786Z,-0.07
2023-02-06T21:41:16.687Z,-0.11
2023-02-06T21:43:43.324Z,-0.17
2023-02-06T21:46:11.665Z,-0.19
2023-02-06T21:48:38.970Z,-0.23
2023-02-06T21:51:16.802Z,-0.27
2023-02-06T21:53:44.900Z,-0.31
2023-02-06T21:56:22.791Z,-0.32
2023-02-06T21:58:49.942Z,-0.34
2023-02-06T22:01:24.841Z,-0.37
2023-02-06T22:03:52.177Z,-0.42
2023-02-06T22:06:20.207Z,-0.44
2023-02-06T22:08:51.663Z,-0.50
2023-02-06T22:11:23.664Z,-0.51
2023-02-06T22:13:51.501Z,-0.54
2023-02-06T22:16:21.385Z,-0.55
2023-02-06T22:18:48.945Z,-0.55
2023-02-06T22:21:18.014Z,-0.57
2023-02-06T22:23:46.433Z,-0.59
2023-02-06T22:26:15.556Z,-0.62
2023-02-06T22:28:42.746Z,-0.63
2023-02-06T22:31:15.155Z,-0.64
2023-02-06T22:33:42.285Z,-0.65
2023-02-06T22:36:11.589Z,-0.66
2023-02-06T22:38:38.855Z,-0.69
2023-02-06T22:41:08.027Z,-0.71
2023-02-06T22:43:36.409Z,-0.71
2023-02-06T22:46:03.278Z,-0.71
2023-02-06T22:48:29.940Z,-0.73
2023-02-06T22:50:56.726Z,-0.74
2023-02-06T22:53:29.724Z,-0.77
2023-02-06T22:56:22.081Z,-0.78
2023-02-06T22:58:49.408Z,-0.78
2023-02-06T23:01:18.369Z,-0.79
2023-02-06T23:03:45.268Z,-0.78
2023-02-06T23:06:14.960Z,-0.81
2023-02-06T23:08:43.145Z,-0.82
2023-02-06T23:11:11.499Z,-0.83
2023-02-06T23:13:39.225Z,-0.83
2023-02-06T23:16:06.825Z,-0.88
2023-02-06T23:18:33.966Z,-0.87
2023-02-06T23:21:04.111Z,-0.88
2023-02-06T23:23:31.487Z,-0.91
2023-02-06T23:25:58.459Z,-0.93
2023-02-06T23:28:26.144Z,-0.94
2023-02-06T23:30:53.796Z,-0.96
2023-02-06T23:33:20.649Z,-0.95
2023-02-06T23:35:47.424Z,-0.98
2023-02-06T23:38:13.951Z,-1.02
2023-02-06T23:40:40.486Z,-1.03
2023-02-06T23:43:07.052Z,-1.03
2023-02-06T23:45:33.825Z,-1.05
2023-02-06T23:48:00.381Z,-1.06
2023-02-06T23:50:27.163Z,-1.08
2023-02-06T23:52:54.029Z,-1.08
2023-02-06T23:55:21.577Z,-1.11
2023-02-06T23:57:48.083Z,-1.12
